createdAt,value
2019-03-31T00:02:18.465Z,30.17
2019-03-31T00:04:47.101Z,23.53
2019-03-31T00:07:15.767Z,27.10
2019-03-31T00:09:44.320Z,24.53
2019-03-31T00:12:13.111Z,25.50
2019-03-31T00:14:41.645Z,44.27
2019-03-31T00:17:10.273Z,26.53
2019-03-31T00:19:38.862Z,26.87
2019-03-31T00:22:07.434Z,28.40
2019-03-31T00:24:36.022Z,29.27
2019-03-31T00:27:04.762Z,26.60
2019-03-31T00:29:33.363Z,28.47
2019-03-31T00:32:02.275Z,30.60
2019-03-31T00:34:30.894Z,28.40
2019-03-31T00:36:59.466Z,28.83
2019-03-31T00:39:28.075Z,30.90
2019-03-31T00:41:56.645Z,28.53
2019-03-31T00:44:25.451Z,29.77
2019-03-31T00:46:54.577Z,30.07
2019-03-31T00:49:23.364Z,30.57
2019-03-31T00:51:51.959Z,30.63
2019-03-31T00:54:20.620Z,31.33
2019-03-31T00:56:49.286Z,31.87
2019-03-31T00:59:17.860Z,33.40
2019-03-31T01:01:50.930Z,33.00
2019-03-31T01:04:21.104Z,33.73
2019-03-31T01:06:52.375Z,35.10
2019-03-31T01:09:27.675Z,33.03
2019-03-31T01:11:56.903Z,35.43
2019-03-31T01:14:26.979Z,37.33
2019-03-31T01:16:56.087Z,37.20
2019-03-31T01:19:25.689Z,36.27
2019-03-31T01:21:54.289Z,38.13
2019-03-31T01:24:23.270Z,41.57
2019-03-31T01:26:52.201Z,39.93
2019-03-31T01:29:22.164Z,39.87
2019-03-31T01:31:51.469Z,41.03
2019-03-31T01:34:20.258Z,41.67
2019-03-31T01:36:48.902Z,40.07
2019-03-31T01:39:17.574Z,41.60
2019-03-31T01:41:46.305Z,41.17
2019-03-31T01:44:15.263Z,42.17
2019-03-31T01:46:43.892Z,42.57
2019-03-31T01:49:12.526Z,41.90
2019-03-31T01:51:41.199Z,43.57
2019-03-31T01:54:09.826Z,41.27
2019-03-31T01:56:38.466Z,41.63
2019-03-31T01:59:07.069Z,45.03
2019-03-31T02:01:35.869Z,42.33
2019-03-31T02:04:04.586Z,43.70
2019-03-31T02:06:33.927Z,44.40
2019-03-31T02:09:02.586Z,41.93
2019-03-31T02:11:31.424Z,41.73
2019-03-31T02:14:00.028Z,43.93
2019-03-31T02:16:29.106Z,43.30
2019-03-31T02:18:57.682Z,42.83
2019-03-31T02:21:26.262Z,41.73
2019-03-31T02:23:54.888Z,41.40
2019-03-31T02:26:23.606Z,41.03
2019-03-31T02:28:52.195Z,40.33
2019-03-31T02:31:20.859Z,40.60
2019-03-31T02:33:49.460Z,38.67
2019-03-31T02:36:18.052Z,40.67
2019-03-31T02:38:46.622Z,38.93
2019-03-31T02:41:15.254Z,38.27
2019-03-31T02:43:43.942Z,40.07
2019-03-31T02:46:12.872Z,39.73
2019-03-31T02:48:41.563Z,40.57
2019-03-31T02:51:10.197Z,38.40
2019-03-31T02:53:38.929Z,37.53
2019-03-31T02:56:08.035Z,36.97
2019-03-31T02:58:37.440Z,36.37
2019-03-31T03:01:07.051Z,36.00
2019-03-31T03:03:37.686Z,38.80
2019-03-31T03:06:08.945Z,38.33
2019-03-31T03:08:40.054Z,37.80
2019-03-31T03:11:10.848Z,39.60
2019-03-31T03:13:40.965Z,37.80
2019-03-31T03:16:15.446Z,38.30
2019-03-31T03:18:44.447Z,35.90
2019-03-31T03:21:13.183Z,37.57
2019-03-31T03:23:41.883Z,37.37
2019-03-31T03:26:10.668Z,38.40
2019-03-31T03:28:39.228Z,34.87
2019-03-31T03:31:14.718Z,35.30
2019-03-31T03:33:38.088Z,33.77
2019-03-31T03:36:06.733Z,35.37
2019-03-31T03:38:35.343Z,34.23
2019-03-31T03:41:03.977Z,35.53
2019-03-31T03:43:32.991Z,37.67
2019-03-31T03:46:01.563Z,37.10
2019-03-31T03:48:30.222Z,36.97
2019-03-31T03:50:58.797Z,37.33
2019-03-31T03:53:27.511Z,37.77
2019-03-31T03:55:56.304Z,40.00
2019-03-31T03:58:24.898Z,35.70
2019-03-31T04:00:53.520Z,39.07
2019-03-31T04:03:30.355Z,36.90
2019-03-31T04:05:52.678Z,37.17
2019-03-31T04:08:21.210Z,35.93
2019-03-31T04:10:52.855Z,37.10
2019-03-31T04:13:21.427Z,36.60
2019-03-31T04:15:50.111Z,38.53
2019-03-31T04:18:18.697Z,37.77
2019-03-31T04:20:47.420Z,37.77
2019-03-31T04:23:15.975Z,37.40
2019-03-31T04:25:44.550Z,37.10
2019-03-31T04:28:13.147Z,37.60
2019-03-31T04:30:41.712Z,38.50
2019-03-31T04:33:10.316Z,35.97
2019-03-31T04:35:38.955Z,37.67
2019-03-31T04:38:07.617Z,38.10
2019-03-31T04:40:36.212Z,38.13
2019-03-31T04:43:04.879Z,39.63
2019-03-31T04:45:33.764Z,37.27
2019-03-31T04:48:02.421Z,37.97
2019-03-31T04:50:30.981Z,38.57
2019-03-31T04:52:59.814Z,38.33
2019-03-31T04:55:28.474Z,37.27
2019-03-31T04:57:57.107Z,39.50
2019-03-31T05:00:25.831Z,37.13
2019-03-31T05:02:54.452Z,36.67
2019-03-31T05:05:23.043Z,37.97
2019-03-31T05:07:51.642Z,37.13
2019-03-31T05:10:20.599Z,35.83
2019-03-31T05:12:49.122Z,35.73
2019-03-31T05:15:17.758Z,35.90
2019-03-31T05:17:46.366Z,35.53
2019-03-31T05:20:15.081Z,35.67
2019-03-31T05:22:43.657Z,34.80
2019-03-31T05:25:12.701Z,36.97
2019-03-31T05:27:41.289Z,35.70
2019-03-31T05:30:10.527Z,36.40
2019-03-31T05:32:39.120Z,36.00
2019-03-31T05:35:08.557Z,35.67
2019-03-31T05:37:50.292Z,36.33
2019-03-31T05:40:07.536Z,36.10
2019-03-31T05:42:36.276Z,36.57
2019-03-31T05:45:06.684Z,39.73
2019-03-31T05:47:35.225Z,35.03
2019-03-31T05:50:05.858Z,43.10
2019-03-31T05:52:34.671Z,38.93
2019-03-31T05:55:04.898Z,43.20
2019-03-31T05:57:33.503Z,37.37
2019-03-31T06:00:02.138Z,35.60
2019-03-31T06:02:30.834Z,35.13
2019-03-31T06:04:59.472Z,35.03
2019-03-31T06:07:28.067Z,35.80
2019-03-31T06:09:56.748Z,31.90
2019-03-31T06:12:25.370Z,32.90
2019-03-31T06:14:54.006Z,36.03
2019-03-31T06:17:22.566Z,35.13
2019-03-31T06:19:51.419Z,34.20
2019-03-31T06:22:20.058Z,34.17
2019-03-31T06:24:48.641Z,32.00
2019-03-31T06:27:17.279Z,33.77
2019-03-31T06:29:45.916Z,34.20
2019-03-31T06:32:14.835Z,31.73
2019-03-31T06:34:47.755Z,32.23
2019-03-31T06:37:13.654Z,32.47
2019-03-31T06:39:42.245Z,31.97
2019-03-31T06:42:11.106Z,31.13
2019-03-31T06:44:39.781Z,28.83
2019-03-31T06:47:10.355Z,30.80
2019-03-31T06:49:38.763Z,31.03
2019-03-31T06:52:07.431Z,29.03
2019-03-31T06:54:36.021Z,28.80
2019-03-31T06:57:04.743Z,26.83
2019-03-31T06:59:33.370Z,28.97
2019-03-31T07:02:03.342Z,30.57
2019-03-31T07:04:32.180Z,29.70
2019-03-31T07:07:00.845Z,28.60
2019-03-31T07:09:29.527Z,24.37
2019-03-31T07:11:58.114Z,25.87
2019-03-31T07:14:26.753Z,55.30
2019-03-31T07:16:55.325Z,25.60
2019-03-31T07:19:23.931Z,23.70
2019-03-31T07:21:52.710Z,22.47
2019-03-31T07:24:25.174Z,21.77
2019-03-31T07:26:53.729Z,23.52
2019-03-31T07:29:22.544Z,22.83
2019-03-31T07:31:51.227Z,21.30
2019-03-31T07:34:19.776Z,19.53
2019-03-31T07:36:48.403Z,20.20
2019-03-31T07:39:17.348Z,17.53
2019-03-31T07:41:46.277Z,18.57
2019-03-31T07:44:15.445Z,19.90
2019-03-31T07:46:45.323Z,17.57
2019-03-31T07:49:13.895Z,16.53
2019-03-31T07:51:42.530Z,12.67
2019-03-31T07:54:11.196Z,11.47
2019-03-31T07:56:39.865Z,10.97
2019-03-31T07:59:09.860Z,10.77
2019-03-31T08:01:38.533Z,8.80
2019-03-31T08:04:07.195Z,9.83
2019-03-31T08:06:36.173Z,9.37
2019-03-31T08:09:06.876Z,8.70
2019-03-31T08:11:35.538Z,8.80
2019-03-31T08:14:04.586Z,8.03
2019-03-31T08:16:33.553Z,7.33
2019-03-31T08:19:02.204Z,7.63
2019-03-31T08:21:32.663Z,8.70
2019-03-31T08:24:01.557Z,8.13
2019-03-31T08:26:30.225Z,7.47
2019-03-31T08:28:58.882Z,7.70
2019-03-31T08:31:27.921Z,8.60
2019-03-31T08:33:56.530Z,8.10
2019-03-31T08:36:25.323Z,6.93
2019-03-31T08:38:53.878Z,10.87
2019-03-31T08:41:22.626Z,8.60
2019-03-31T08:43:51.201Z,10.83
2019-03-31T08:46:19.892Z,6.90
2019-03-31T08:48:48.550Z,8.97
2019-03-31T08:51:17.169Z,8.30
2019-03-31T08:53:45.806Z,7.67
2019-03-31T08:56:14.766Z,8.90
2019-03-31T08:58:43.754Z,8.63
2019-03-31T09:01:16.644Z,8.17
2019-03-31T09:03:45.302Z,7.67
2019-03-31T09:06:14.084Z,7.23
2019-03-31T09:08:44.863Z,5.13
2019-03-31T09:11:14.000Z,3.60
2019-03-31T09:13:42.663Z,3.90
2019-03-31T09:16:11.362Z,3.17
2019-03-31T09:18:40.063Z,2.90
2019-03-31T09:21:08.720Z,3.67
2019-03-31T09:23:37.407Z,3.40
2019-03-31T09:26:06.012Z,2.52
2019-03-31T09:28:34.686Z,5.15
2019-03-31T09:31:03.355Z,7.20
2019-03-31T09:33:32.014Z,7.08
2019-03-31T09:36:15.140Z,7.87
2019-03-31T09:38:30.881Z,4.83
2019-03-31T09:40:59.625Z,7.90
2019-03-31T09:43:28.329Z,4.65
2019-03-31T09:45:57.086Z,6.40
2019-03-31T09:48:25.801Z,3.72
2019-03-31T09:50:56.543Z,4.20
2019-03-31T09:53:24.771Z,4.10
2019-03-31T09:55:53.614Z,5.55
2019-03-31T09:58:22.272Z,5.97
2019-03-31T10:00:53.086Z,7.65
2019-03-31T10:03:22.093Z,10.25
2019-03-31T10:05:51.126Z,12.23
2019-03-31T10:08:21.947Z,8.83
2019-03-31T10:10:50.946Z,5.60
2019-03-31T10:13:19.695Z,3.58
2019-03-31T10:15:49.789Z,3.30
2019-03-31T10:18:18.576Z,2.58
2019-03-31T10:20:47.591Z,2.77
2019-03-31T10:23:16.239Z,3.60
2019-03-31T10:25:44.912Z,2.27
2019-03-31T10:28:13.874Z,2.65
2019-03-31T10:30:42.615Z,4.42
2019-03-31T10:33:11.312Z,5.08
2019-03-31T10:35:39.951Z,6.45
2019-03-31T10:38:09.214Z,5.90
2019-03-31T10:40:37.858Z,4.80
2019-03-31T10:43:06.584Z,3.90
2019-03-31T10:45:35.208Z,3.70
2019-03-31T10:48:04.060Z,4.70
2019-03-31T10:50:32.710Z,4.47
2019-03-31T10:53:01.627Z,5.00
2019-03-31T10:55:30.263Z,5.87
2019-03-31T10:57:58.904Z,4.80
2019-03-31T11:00:36.139Z,4.70
2019-03-31T11:03:06.380Z,5.33
2019-03-31T11:05:35.089Z,4.90
2019-03-31T11:08:04.633Z,5.73
2019-03-31T11:10:33.298Z,7.70
2019-03-31T11:13:01.981Z,7.07
2019-03-31T11:15:30.602Z,5.23
2019-03-31T11:17:59.183Z,5.13
2019-03-31T11:20:27.938Z,4.73
2019-03-31T11:23:07.366Z,2.50
2019-03-31T11:25:36.057Z,2.58
2019-03-31T11:28:04.786Z,3.58
2019-03-31T11:30:33.384Z,5.35
2019-03-31T11:33:02.084Z,6.08
2019-03-31T11:35:30.826Z,5.70
2019-03-31T11:37:59.652Z,4.08
2019-03-31T11:40:28.234Z,3.55
2019-03-31T11:42:56.881Z,4.67
2019-03-31T11:45:25.737Z,3.37
2019-03-31T11:47:54.336Z,3.42
2019-03-31T11:50:23.042Z,4.33
2019-03-31T11:52:51.677Z,4.83
2019-03-31T11:55:20.348Z,3.42
2019-03-31T11:57:48.979Z,7.17
2019-03-31T12:00:19.677Z,6.87
2019-03-31T12:02:48.495Z,3.85
2019-03-31T12:05:17.254Z,5.83
2019-03-31T12:07:47.667Z,8.70
2019-03-31T12:10:19.692Z,4.80
2019-03-31T12:12:46.983Z,5.07
2019-03-31T12:15:17.182Z,5.10
2019-03-31T12:17:45.843Z,4.83
2019-03-31T12:20:14.656Z,9.00
2019-03-31T12:22:43.336Z,9.07
2019-03-31T12:25:12.398Z,5.95
2019-03-31T12:27:41.115Z,4.05
2019-03-31T12:30:10.524Z,4.83
2019-03-31T12:32:39.250Z,4.08
2019-03-31T12:35:10.041Z,4.22
2019-03-31T12:37:42.771Z,3.98
2019-03-31T12:40:15.202Z,3.77
2019-03-31T12:42:42.309Z,3.95
2019-03-31T12:45:11.419Z,4.00
2019-03-31T12:47:41.851Z,5.30
2019-03-31T12:50:10.752Z,6.95
2019-03-31T12:52:46.598Z,2.90
2019-03-31T12:55:09.798Z,3.55
2019-03-31T12:57:38.810Z,1.77
2019-03-31T13:00:08.883Z,3.02
2019-03-31T13:02:37.526Z,1.62
2019-03-31T13:05:08.939Z,1.75
2019-03-31T13:07:37.522Z,2.12
2019-03-31T13:10:06.486Z,2.65
2019-03-31T13:12:36.861Z,1.75
2019-03-31T13:15:08.683Z,2.98
2019-03-31T13:17:37.243Z,3.80
2019-03-31T13:20:07.708Z,2.70
2019-03-31T13:22:36.401Z,2.12
2019-03-31T13:25:08.833Z,3.00
2019-03-31T13:27:37.530Z,2.87
2019-03-31T13:30:08.228Z,3.72
2019-03-31T13:32:36.906Z,3.80
2019-03-31T13:35:08.614Z,4.60
2019-03-31T13:37:37.355Z,5.45
2019-03-31T13:40:07.581Z,5.70
2019-03-31T13:42:36.309Z,4.50
2019-03-31T13:45:08.454Z,4.65
2019-03-31T13:47:37.060Z,6.67
2019-03-31T13:50:07.893Z,4.60
2019-03-31T13:52:38.447Z,4.40
2019-03-31T13:55:10.066Z,6.03
2019-03-31T13:57:44.324Z,4.00
2019-03-31T14:00:15.392Z,4.42
2019-03-31T14:02:44.182Z,2.60
2019-03-31T14:05:13.095Z,2.62
2019-03-31T14:07:41.886Z,2.52
2019-03-31T14:10:10.684Z,2.12
2019-03-31T14:12:39.552Z,4.10
2019-03-31T14:15:19.006Z,2.92
2019-03-31T14:17:40.089Z,2.45
2019-03-31T14:20:09.313Z,3.35
2019-03-31T14:22:38.030Z,2.40
2019-03-31T14:25:07.363Z,2.60
2019-03-31T14:27:35.975Z,4.78
2019-03-31T14:30:06.939Z,3.30
2019-03-31T14:32:35.619Z,4.40
2019-03-31T14:35:05.545Z,2.95
2019-03-31T14:37:34.333Z,2.07
2019-03-31T14:40:03.366Z,2.87
2019-03-31T14:42:32.019Z,2.50
2019-03-31T14:45:00.687Z,2.17
2019-03-31T14:47:29.382Z,3.27
2019-03-31T14:49:58.096Z,2.13
2019-03-31T14:52:27.974Z,2.13
2019-03-31T14:54:56.910Z,2.50
2019-03-31T14:57:25.565Z,2.50
2019-03-31T14:59:54.251Z,1.80
2019-03-31T15:02:22.814Z,2.20
2019-03-31T15:04:51.487Z,1.77
2019-03-31T15:07:20.087Z,2.43
2019-03-31T15:09:49.108Z,1.93
2019-03-31T15:12:20.421Z,2.30
2019-03-31T15:14:49.189Z,2.17
2019-03-31T15:17:18.004Z,2.00
2019-03-31T15:19:46.561Z,4.30
2019-03-31T15:22:16.986Z,2.80
2019-03-31T15:24:45.820Z,3.10
2019-03-31T15:27:14.384Z,2.70
2019-03-31T15:29:45.730Z,4.80
2019-03-31T15:32:14.487Z,3.67
2019-03-31T15:34:49.837Z,2.70
2019-03-31T15:37:19.410Z,3.07
2019-03-31T15:39:48.360Z,2.40
2019-03-31T15:42:17.008Z,4.10
2019-03-31T15:44:45.591Z,2.80
2019-03-31T15:47:14.531Z,3.67
2019-03-31T15:49:43.266Z,3.20
2019-03-31T15:52:11.928Z,3.60
2019-03-31T15:54:40.584Z,2.10
2019-03-31T15:57:09.813Z,2.50
2019-03-31T15:59:41.943Z,3.37
2019-03-31T16:02:10.572Z,2.08
2019-03-31T16:04:39.224Z,2.93
2019-03-31T16:07:08.166Z,3.03
2019-03-31T16:09:36.863Z,2.00
2019-03-31T16:12:05.739Z,2.50
2019-03-31T16:14:34.468Z,2.33
2019-03-31T16:17:04.546Z,1.87
2019-03-31T16:19:33.433Z,2.77
2019-03-31T16:22:02.165Z,2.50
2019-03-31T16:24:35.466Z,3.50
2019-03-31T16:27:04.271Z,2.40
2019-03-31T16:29:33.046Z,4.17
2019-03-31T16:32:02.674Z,3.60
2019-03-31T16:34:32.788Z,2.63
2019-03-31T16:37:01.692Z,2.13
2019-03-31T16:39:37.601Z,2.10
2019-03-31T16:42:00.964Z,3.17
2019-03-31T16:44:29.534Z,2.80
2019-03-31T16:46:58.227Z,3.40
2019-03-31T16:49:29.693Z,4.10
2019-03-31T16:51:58.383Z,3.27
2019-03-31T16:54:27.055Z,3.63
2019-03-31T16:56:55.758Z,3.13
2019-03-31T16:59:24.595Z,5.53
2019-03-31T17:01:53.330Z,4.17
2019-03-31T17:04:22.023Z,3.53
2019-03-31T17:06:50.672Z,3.20
2019-03-31T17:09:21.128Z,3.10
2019-03-31T17:11:51.542Z,2.80
2019-03-31T17:14:20.400Z,3.57
2019-03-31T17:16:49.476Z,2.37
2019-03-31T17:19:18.424Z,2.57
2019-03-31T17:21:48.727Z,3.13
2019-03-31T17:24:21.726Z,3.63
2019-03-31T17:27:07.892Z,5.50
2019-03-31T17:29:44.529Z,3.37
2019-03-31T17:32:12.885Z,3.63
2019-03-31T17:34:41.534Z,3.20
2019-03-31T17:37:10.548Z,2.40
2019-03-31T17:39:39.315Z,3.23
2019-03-31T17:42:08.071Z,2.03
2019-03-31T17:44:36.861Z,2.63
2019-03-31T17:47:05.892Z,2.97
2019-03-31T17:49:34.493Z,2.93
2019-03-31T17:52:03.565Z,1.93
2019-03-31T17:54:32.177Z,2.93
2019-03-31T17:57:00.799Z,2.63
2019-03-31T17:59:29.496Z,3.60
2019-03-31T18:01:58.302Z,2.57
2019-03-31T18:04:27.036Z,2.10
2019-03-31T18:06:55.898Z,2.00
2019-03-31T18:09:24.498Z,2.10
2019-03-31T18:11:53.346Z,2.97
2019-03-31T18:14:22.039Z,2.30
2019-03-31T18:16:50.709Z,1.97
2019-03-31T18:19:19.314Z,3.03
2019-03-31T18:21:47.974Z,2.83
2019-03-31T18:24:18.427Z,3.50
2019-03-31T18:26:47.130Z,2.60
2019-03-31T18:29:15.718Z,2.43
2019-03-31T18:31:44.421Z,3.43
2019-03-31T18:34:13.650Z,2.67
2019-03-31T18:36:42.307Z,3.83
2019-03-31T18:39:10.983Z,4.03
2019-03-31T18:41:39.699Z,3.07
2019-03-31T18:44:08.683Z,3.97
2019-03-31T18:46:37.262Z,4.20
2019-03-31T18:49:05.956Z,4.13
2019-03-31T18:51:34.735Z,3.17
2019-03-31T18:54:20.373Z,3.00
2019-03-31T18:56:50.634Z,3.60
2019-03-31T18:59:36.106Z,3.07
2019-03-31T19:02:10.023Z,2.30
2019-03-31T19:04:55.306Z,2.70
2019-03-31T19:07:42.099Z,3.07
2019-03-31T19:10:24.472Z,2.60
2019-03-31T19:12:51.201Z,2.30
2019-03-31T19:17:56.597Z,2.60
2019-03-31T19:20:31.422Z,2.67
2019-03-31T19:23:13.829Z,2.47
2019-03-31T19:25:47.116Z,2.72
2019-03-31T19:28:19.987Z,3.40
2019-03-31T19:30:52.644Z,2.93
2019-03-31T19:33:39.177Z,2.30
2019-03-31T19:36:12.117Z,1.87
2019-03-31T19:38:42.398Z,3.17
2019-03-31T19:41:18.654Z,1.93
2019-03-31T19:43:49.063Z,2.20
2019-03-31T19:46:27.893Z,2.30
2019-03-31T19:49:03.941Z,2.70
2019-03-31T19:51:34.194Z,3.03
2019-03-31T19:54:04.557Z,4.67
2019-03-31T19:56:34.847Z,6.03
2019-03-31T19:59:13.651Z,6.83
2019-03-31T20:02:02.097Z,8.70
2019-03-31T20:04:46.206Z,10.93
2019-03-31T20:07:22.537Z,11.07
2019-03-31T20:10:08.018Z,15.17
2019-03-31T20:12:38.328Z,13.97
2019-03-31T20:15:27.749Z,12.17
2019-03-31T20:18:14.458Z,7.87
2019-03-31T20:21:00.020Z,5.77
2019-03-31T20:23:45.382Z,4.93
2019-03-31T20:26:21.301Z,3.70
2019-03-31T20:29:07.940Z,2.67
2019-03-31T20:31:56.414Z,2.10
2019-03-31T20:34:26.704Z,2.23
2019-03-31T20:37:14.882Z,2.20
2019-03-31T20:39:56.079Z,1.87
2019-03-31T20:42:35.351Z,1.52
2019-03-31T20:45:06.045Z,3.10
2019-03-31T20:47:34.897Z,1.57
2019-03-31T20:50:05.307Z,7.77
2019-03-31T20:52:33.892Z,1.70
2019-03-31T20:55:15.685Z,1.77
2019-03-31T20:57:32.778Z,1.70
2019-03-31T21:00:01.397Z,1.77
2019-03-31T21:02:29.966Z,2.43
2019-03-31T21:04:58.538Z,1.90
2019-03-31T21:07:27.141Z,2.10
2019-03-31T21:09:55.781Z,1.47
2019-03-31T21:12:24.496Z,2.17
2019-03-31T21:14:53.121Z,2.00
2019-03-31T21:17:22.118Z,1.73
2019-03-31T21:19:50.703Z,2.50
2019-03-31T21:22:19.269Z,2.40
2019-03-31T21:24:47.848Z,1.87
2019-03-31T21:27:16.515Z,2.47
2019-03-31T21:29:45.111Z,1.97
2019-03-31T21:32:13.964Z,1.17
2019-03-31T21:34:42.515Z,1.63
2019-03-31T21:37:11.079Z,1.33
2019-03-31T21:39:39.672Z,1.50
2019-03-31T21:42:08.224Z,1.50
2019-03-31T21:44:36.811Z,1.47
2019-03-31T21:47:05.446Z,2.50
2019-03-31T21:49:34.441Z,1.80
2019-03-31T21:52:03.088Z,2.57
2019-03-31T21:54:31.669Z,1.43
2019-03-31T21:57:00.262Z,2.33
2019-03-31T21:59:28.833Z,1.67
2019-03-31T22:01:57.576Z,3.00
2019-03-31T22:04:26.141Z,2.10
2019-03-31T22:06:54.919Z,2.20
2019-03-31T22:09:23.507Z,1.30
2019-03-31T22:11:52.089Z,1.60
2019-03-31T22:14:20.673Z,1.83
2019-03-31T22:16:49.342Z,1.70
2019-03-31T22:19:18.026Z,2.90
2019-03-31T22:21:46.567Z,1.50
2019-03-31T22:24:15.394Z,1.43
2019-03-31T22:26:43.982Z,1.20
2019-03-31T22:29:12.762Z,1.47
2019-03-31T22:31:41.346Z,1.17
2019-03-31T22:34:09.918Z,1.60
2019-03-31T22:36:38.807Z,1.03
2019-03-31T22:39:08.072Z,1.83
2019-03-31T22:41:36.717Z,1.23
2019-03-31T22:44:05.862Z,1.03
2019-03-31T22:46:34.409Z,1.20
2019-03-31T22:49:02.974Z,1.00
2019-03-31T22:51:31.639Z,1.00
2019-03-31T22:54:00.193Z,1.03
2019-03-31T22:56:28.800Z,1.00
2019-03-31T22:58:57.383Z,1.30
2019-03-31T23:01:26.109Z,1.33
2019-03-31T23:03:54.673Z,1.40
2019-03-31T23:06:23.262Z,1.27
2019-03-31T23:08:52.002Z,1.40
2019-03-31T23:11:20.995Z,1.20
2019-03-31T23:13:49.554Z,1.00
2019-03-31T23:16:18.361Z,1.03
2019-03-31T23:18:47.377Z,1.07
2019-03-31T23:21:16.005Z,1.40
2019-03-31T23:23:44.787Z,1.00
2019-03-31T23:26:13.474Z,1.70
2019-03-31T23:28:47.800Z,1.13
2019-03-31T23:31:17.249Z,1.50
2019-03-31T23:33:45.986Z,1.63
2019-03-31T23:36:14.726Z,2.17
2019-03-31T23:38:43.362Z,1.97
2019-03-31T23:41:11.925Z,1.37
2019-03-31T23:43:40.626Z,1.40
2019-03-31T23:46:09.215Z,1.73
2019-03-31T23:48:37.870Z,1.20
2019-03-31T23:51:06.494Z,1.20
2019-03-31T23:53:35.089Z,1.20
2019-03-31T23:56:03.679Z,1.30
2019-03-31T23:58:32.537Z,1.27
